Time;durP1;ratioP1;P1;durP2;ratioP2;P2;SDS_P1;SDS_P2;PMS_P1;PMS_P2;Temp;Humidity;BMP_temperature;BMP_pressure;BME280_temperature;BME280_humidity;BME280_pressure;Samples;Min_cycle;Max_cycle;Signal;HPM_P1;HPM_P2
2021/01/20 00:11:39;;;;;;;;;;;;;;;-144.34;100.00;60189.88;5067282;28;20473;-79
2021/01/20 00:19:04;;;;;;;;;;;;;;;-144.34;100.00;60189.88;5067659;28;19931;-79
2021/01/20 00:26:30;;;;;;;;;;;;;;;-144.34;100.00;60189.88;5066175;28;19993;-79
2021/01/20 00:33:55;;;;;;;;;;;;;;;-144.34;100.00;60189.88;5066378;28;19939;-79
2021/01/20 00:41:21;;;;;;;;;;;;;;;-144.34;100.00;60189.88;5065234;28;19935;-80
2021/01/20 00:48:46;;;;;;;;;;;;;;;-144.34;100.00;60189.88;5070873;28;19923;-79
2021/01/20 00:56:12;;;;;;;;;;;;;;;-144.34;100.00;60189.88;5070457;28;19951;-79
2021/01/20 01:03:37;;;;;;;;;;;;;;;-144.34;100.00;60189.88;5070465;28;19923;-79
2021/01/20 01:15:27;;;;;;;;;;;;;;;-144.34;100.00;60189.88;5070242;28;20073;-79
2021/01/20 01:20:55;;;;;;;;;;;;;;;-144.34;100.00;60189.88;5070638;28;19923;-79
2021/01/20 01:27:23;;;;;;;;;;;;;;;-144.34;100.00;60189.88;5069794;28;19997;-79
2021/01/20 05:53:53;;;;;;;;;;;;;;;-144.34;100.00;60189.88;522991;26;20409;-78
2021/01/20 05:57:17;;;;;;;;;;;;;;;-144.34;100.00;60189.88;4996277;28;20340;-86
2021/01/20 06:00:41;;;;;;;;;;;;;;;-144.34;100.00;60189.88;4996383;28;20381;-87
2021/01/20 06:04:05;;;;;;;;;;;;;;;-144.34;100.00;60189.88;5015055;28;19960;-86
2021/01/20 06:07:29;;;;;;;;;;;;;;;-144.34;100.00;60189.88;4999529;28;19928;-88
2021/01/20 06:10:53;;;;;;;;;;;;;;;-144.34;100.00;60189.88;4997481;28;19960;-86
2021/01/20 06:14:17;;;;;;;;;;;;;;;-144.34;100.00;60189.88;5013472;28;20403;-85
2021/01/20 06:17:42;;;;;;;;;;;;;;;-144.34;100.00;60189.88;4997468;28;19943;-85
2021/01/20 06:21:06;;;;;;;;;;;;;;;-144.34;100.00;60189.88;4997557;28;20898;-85
2021/01/20 06:24:40;;;;;;;;;;;;;;;-144.34;100.00;60189.88;5013594;28;19928;-85
2021/01/20 06:28:07;;;;;;;;;;;;;;;-144.34;100.00;60189.88;5014051;28;20330;-85
2021/01/20 06:31:37;;;;;;;;;;;;;;;-144.34;100.00;60189.88;4997348;28;20339;-85
2021/01/20 06:35:01;;;;;;;;;;;;;;;-144.34;100.00;60189.88;5013044;28;20397;-87
2021/01/20 06:38:28;;;;;;;;;;;;;;;-144.34;100.00;60189.88;4996315;28;20065;-87
2021/01/20 06:41:52;;;;;;;;;;;;;;;-144.34;100.00;60189.88;5013714;28;20121;-88
2021/01/20 06:45:15;;;;;;;;;;;;;;;-144.34;100.00;60189.88;5011879;28;19925;-89
2021/01/20 06:48:52;;;;;;;;;;;;;;;-144.34;100.00;60189.88;4985402;28;19929;-89
2021/01/20 06:52:16;;;;;;;;;;;;;;;-144.34;100.00;60189.88;5017229;28;19968;-88
2021/01/20 06:55:39;;;;;;;;;;;;;;;-144.34;100.00;60189.88;5011165;28;19968;-89
2021/01/20 06:59:14;;;;;;;;;;;;;;;-144.34;100.00;60189.88;5011403;28;20012;-88
2021/01/20 07:02:56;;;;;;;;;;;;;;;-144.34;100.00;60189.88;5011604;28;19925;-88
2021/01/20 07:06:32;;;;;;;;;;;;;;;-144.34;100.00;60189.88;5013103;28;19994;-89
2021/01/20 07:09:56;;;;;;;;;;;;;;;-144.34;100.00;60189.88;4995419;28;19931;-87
2021/01/20 07:13:20;;;;;;;;;;;;;;;-144.34;100.00;60189.88;5014331;28;19935;-89
2021/01/20 07:16:44;;;;;;;;;;;;;;;-144.34;100.00;60189.88;4995403;28;19928;-88
2021/01/20 07:20:08;;;;;;;;;;;;;;;-144.34;100.00;60189.88;4999056;28;19925;-87
2021/01/20 07:23:33;;;;;;;;;;;;;;;-144.34;100.00;60189.88;5011170;28;20051;-88
2021/01/20 07:27:02;;;;;;;;;;;;;;;-144.34;100.00;60189.88;4995183;28;19921;-88
2021/01/20 07:30:26;;;;;;;;;;;;;;;-144.34;100.00;60189.88;4997493;28;19978;-89
2021/01/20 07:33:50;;;;;;;;;;;;;;;-144.34;100.00;60189.88;5011773;28;19968;-89
2021/01/20 07:37:15;;;;;;;;;;;;;;;-144.34;100.00;60189.88;4972152;28;19929;-89
2021/01/20 07:40:43;;;;;;;;;;;;;;;-144.34;100.00;60189.88;4999199;28;19955;-89
2021/01/20 07:44:07;;;;;;;;;;;;;;;-144.34;100.00;60189.88;4980541;28;19948;-88
2021/01/20 07:47:43;;;;;;;;;;;;;;;-144.34;100.00;60189.88;5002746;28;19974;-89
2021/01/20 07:51:07;;;;;;;;;;;;;;;-144.34;100.00;60189.88;4978744;28;19932;-88
2021/01/20 07:54:34;;;;;;;;;;;;;;;-144.34;100.00;60189.88;5009324;28;20032;-89
2021/01/20 07:57:59;;;;;;;;;;;;;;;-144.34;100.00;60189.88;4996703;28;19968;-87
2021/01/20 08:01:27;;;;;;;;;;;;;;;-144.34;100.00;60189.88;4976097;28;20032;-89
2021/01/20 08:05:00;;;;;;;;;;;;;;;-144.34;100.00;60189.88;5002482;28;19949;-89
2021/01/20 08:08:24;;;;;;;;;;;;;;;-144.34;100.00;60189.88;5010860;28;19963;-90
2021/01/20 08:11:48;;;;;;;;;;;;;;;-144.34;100.00;60189.88;5001342;28;19927;-90
2021/01/20 08:15:13;;;;;;;;;;;;;;;-144.34;100.00;60189.88;4995079;28;19921;-90
2021/01/20 08:18:37;;;;;;;;;;;;;;;-144.34;100.00;60189.88;5005056;28;19936;-90
2021/01/20 08:22:04;;;;;;;;;;;;;;;-144.34;100.00;60189.88;5007524;28;19921;-90
2021/01/20 08:25:30;;;;;;;;;;;;;;;-144.34;100.00;60189.88;4994965;28;19928;-90
2021/01/20 08:29:03;;;;;;;;;;;;;;;-144.34;100.00;60189.88;4996523;28;19925;-90
2021/01/20 08:32:28;;;;;;;;;;;;;;;-144.34;100.00;60189.88;5020237;28;20337;-91
2021/01/20 08:35:58;;;;;;;;;;;;;;;-144.34;100.00;60189.88;4976057;28;19991;-89
2021/01/20 08:39:22;;;;;;;;;;;;;;;-144.34;100.00;60189.88;4991676;28;20520;-89
2021/01/20 08:42:46;;;;;;;;;;;;;;;-144.34;100.00;60189.88;5002622;28;20168;-88
2021/01/20 08:46:26;;;;;;;;;;;;;;;-144.34;100.00;60189.88;4995803;28;19956;-90
2021/01/20 08:49:50;;;;;;;;;;;;;;;-144.34;100.00;60189.88;4994423;28;20607;-88
2021/01/20 08:53:23;;;;;;;;;;;;;;;-144.34;100.00;60189.88;4989410;28;20297;-89
2021/01/20 08:56:47;;;;;;;;;;;;;;;-144.34;100.00;60189.88;4992138;28;19925;-89
2021/01/20 09:00:14;;;;;;;;;;;;;;;-144.34;100.00;60189.88;5007394;28;20527;-90
2021/01/20 09:03:38;;;;;;;;;;;;;;;-144.34;100.00;60189.88;5004609;28;20400;-88
2021/01/20 09:07:02;;;;;;;;;;;;;;;-144.34;100.00;60189.88;5000581;28;19964;-90
2021/01/20 09:10:26;;;;;;;;;;;;;;;-144.34;100.00;60189.88;5011010;28;20227;-89
2021/01/20 09:13:53;;;;;;;;;;;;;;;-144.34;100.00;60189.88;4992551;28;19925;-89
2021/01/20 09:17:18;;;;;;;;;;;;;;;-144.34;100.00;60189.88;4994474;28;20012;-89
2021/01/20 09:20:42;;;;;;;;;;;;;;;-144.34;100.00;60189.88;4981000;28;19921;-90
2021/01/20 09:24:07;;;;;;;;;;;;;;;-144.34;100.00;60189.88;5014050;28;19925;-89
2021/01/20 09:27:31;;;;;;;;;;;;;;;-144.34;100.00;60189.88;5000565;28;20442;-93
2021/01/20 09:31:04;;;;;;;;;;;;;;;-144.34;100.00;60189.88;5016002;28;20016;-92
2021/01/20 09:34:28;;;;;;;;;;;;;;;-144.34;100.00;60189.88;4981706;28;19921;-92
2021/01/20 09:37:53;;;;;;;;;;;;;;;-144.34;100.00;60189.88;4981520;28;19938;-93
2021/01/20 09:41:17;;;;;;;;;;;;;;;-144.34;100.00;60189.88;5016144;28;20011;-91
2021/01/20 09:44:48;;;;;;;;;;;;;;;-144.34;100.00;60189.88;5001634;28;19925;-91
2021/01/20 09:48:16;;;;;;;;;;;;;;;-144.34;100.00;60189.88;5015634;28;19929;-91
2021/01/20 09:51:42;;;;;;;;;;;;;;;-144.34;100.00;60189.88;5007944;28;20184;-93
2021/01/20 09:55:18;;;;;;;;;;;;;;;-144.34;100.00;60189.88;4995764;28;19930;-91
2021/01/20 09:58:45;;;;;;;;;;;;;;;-144.34;100.00;60189.88;4990381;28;19958;-91
2021/01/20 10:02:09;;;;;;;;;;;;;;;-144.34;100.00;60189.88;4987337;28;19921;-90
2021/01/20 10:05:33;;;;;;;;;;;;;;;-144.34;100.00;60189.88;4985243;28;19933;-91
2021/01/20 10:08:57;;;;;;;;;;;;;;;-144.34;100.00;60189.88;4990267;28;19926;-91
2021/01/20 10:12:21;;;;;;;;;;;;;;;-144.34;100.00;60189.88;4983057;28;20004;-91
2021/01/20 10:15:47;;;;;;;;;;;;;;;-144.34;100.00;60189.88;4984341;28;19921;-92
2021/01/20 10:19:11;;;;;;;;;;;;;;;-144.34;100.00;60189.88;4988300;28;20079;-91
2021/01/20 10:22:35;;;;;;;;;;;;;;;-144.34;100.00;60189.88;4992635;28;19940;-92
2021/01/20 10:25:59;;;;;;;;;;;;;;;-144.34;100.00;60189.88;4986335;28;19925;-92
2021/01/20 10:29:25;;;;;;;;;;;;;;;-144.34;100.00;60189.88;4986999;28;19925;-91
2021/01/20 10:32:49;;;;;;;;;;;;;;;-144.34;100.00;60189.88;4986061;28;20174;-91
2021/01/20 10:36:15;;;;;;;;;;;;;;;-144.34;100.00;60189.88;4982442;28;19929;-91
2021/01/20 10:39:39;;;;;;;;;;;;;;;-144.34;100.00;60189.88;4993287;28;20191;-92
2021/01/20 10:43:05;;;;;;;;;;;;;;;-144.34;100.00;60189.88;4985682;28;19926;-93
2021/01/20 10:46:29;;;;;;;;;;;;;;;-144.34;100.00;60189.88;4988936;28;19922;-91
2021/01/20 10:49:53;;;;;;;;;;;;;;;-144.34;100.00;60189.88;4984599;28;20386;-92
2021/01/20 10:53:17;;;;;;;;;;;;;;;-144.34;100.00;60189.88;4985489;28;19932;-92
2021/01/20 10:56:47;;;;;;;;;;;;;;;-144.34;100.00;60189.88;4991897;28;19976;-93
2021/01/20 11:00:12;;;;;;;;;;;;;;;-144.34;100.00;60189.88;5009554;28;20216;-90
2021/01/20 11:03:39;;;;;;;;;;;;;;;-144.34;100.00;60189.88;5007885;28;19925;-92
2021/01/20 11:07:05;;;;;;;;;;;;;;;-144.34;100.00;60189.88;4992700;28;20040;-92
2021/01/20 11:10:29;;;;;;;;;;;;;;;-144.34;100.00;60189.88;5009504;28;20250;-92
2021/01/20 11:51:09;;;;;;;;;;;;;;;-144.34;100.00;60189.88;5012120;28;20677;-89
2021/01/20 11:54:33;;;;;;;;;;;;;;;-144.34;100.00;60189.88;5028608;28;19943;-89
2021/01/20 11:57:57;;;;;;;;;;;;;;;-144.34;100.00;60189.88;5025240;28;19960;-88
2021/01/20 12:01:22;;;;;;;;;;;;;;;-144.34;100.00;60189.88;5009803;28;19928;-88
2021/01/20 12:04:46;;;;;;;;;;;;;;;-144.34;100.00;60189.88;5014317;28;19917;-90
2021/01/20 12:08:11;;;;;;;;;;;;;;;-144.34;100.00;60189.88;5028075;28;20711;-88
2021/01/20 12:11:35;;;;;;;;;;;;;;;-144.34;100.00;60189.88;5033819;28;19916;-89
2021/01/20 12:14:59;;;;;;;;;;;;;;;-144.34;100.00;60189.88;5031965;28;19917;-88
2021/01/20 12:18:23;;;;;;;;;;;;;;;-144.34;100.00;60189.88;5006095;28;20059;-87
2021/01/20 12:21:47;;;;;;;;;;;;;;;-144.34;100.00;60189.88;5013633;28;19928;-88
2021/01/20 12:25:13;;;;;;;;;;;;;;;-144.34;100.00;60189.88;5023069;28;19968;-90
2021/01/20 12:28:37;;;;;;;;;;;;;;;-144.34;100.00;60189.88;5033723;28;19924;-88
2021/01/20 12:32:06;;;;;;;;;;;;;;;-144.34;100.00;60189.88;5013258;28;20484;-89
2021/01/20 12:35:30;;;;;;;;;;;;;;;-144.34;100.00;60189.88;5020537;28;19924;-89
2021/01/20 12:38:54;;;;;;;;;;;;;;;-144.34;100.00;60189.88;5011240;28;19967;-91
2021/01/20 12:42:18;;;;;;;;;;;;;;;-144.34;100.00;60189.88;5020788;28;19978;-90
2021/01/20 12:45:43;;;;;;;;;;;;;;;-144.34;100.00;60189.88;5028335;28;19936;-88
2021/01/20 12:49:07;;;;;;;;;;;;;;;-144.34;100.00;60189.88;5016789;28;19928;-89
2021/01/20 12:52:31;;;;;;;;;;;;;;;-144.34;100.00;60189.88;5017904;28;20020;-88
2021/01/20 12:55:54;;;;;;;;;;;;;;;-144.34;100.00;60189.88;5017010;28;19949;-91
2021/01/20 12:59:19;;;;;;;;;;;;;;;-144.34;100.00;60189.88;5030378;28;19955;-88
2021/01/20 13:02:45;;;;;;;;;;;;;;;-144.34;100.00;60189.88;5027724;28;19917;-90
2021/01/20 13:06:09;;;;;;;;;;;;;;;-144.34;100.00;60189.88;5032387;28;20268;-89
2021/01/20 13:09:34;;;;;;;;;;;;;;;-144.34;100.00;60189.88;5027167;28;19920;-89
2021/01/20 13:13:01;;;;;;;;;;;;;;;-144.34;100.00;60189.88;5023011;28;19925;-89
2021/01/20 13:16:25;;;;;;;;;;;;;;;-144.34;100.00;60189.88;5027990;28;19959;-90
2021/01/20 13:19:49;;;;;;;;;;;;;;;-144.34;100.00;60189.88;5010317;28;19940;-89
2021/01/20 13:23:14;;;;;;;;;;;;;;;-144.34;100.00;60189.88;5021391;28;20031;-88
2021/01/20 13:26:38;;;;;;;;;;;;;;;-144.34;100.00;60189.88;5020713;28;19970;-88
2021/01/20 13:30:03;;;;;;;;;;;;;;;-144.34;100.00;60189.88;5014088;28;19917;-88
2021/01/20 13:33:26;;;;;;;;;;;;;;;-144.34;100.00;60189.88;5023665;28;19913;-89
2021/01/20 13:36:52;;;;;;;;;;;;;;;-144.34;100.00;60189.88;5023815;28;19971;-90
2021/01/20 13:40:16;;;;;;;;;;;;;;;-144.34;100.00;60189.88;5040178;28;20364;-89
2021/01/20 13:43:39;;;;;;;;;;;;;;;-144.34;100.00;60189.88;5020167;28;19936;-88
2021/01/20 13:47:04;;;;;;;;;;;;;;;-144.34;100.00;60189.88;5019979;28;19924;-88
2021/01/20 13:50:31;;;;;;;;;;;;;;;-144.34;100.00;60189.88;5005641;28;19921;-90
2021/01/20 13:53:55;;;;;;;;;;;;;;;-144.34;100.00;60189.88;5032023;28;19932;-90
2021/01/20 13:57:19;;;;;;;;;;;;;;;-144.34;100.00;60189.88;5031518;28;19948;-90
2021/01/20 14:00:43;;;;;;;;;;;;;;;-144.34;100.00;60189.88;5023603;28;19939;-89
2021/01/20 14:04:07;;;;;;;;;;;;;;;-144.34;100.00;60189.88;5031482;28;19927;-91
2021/01/20 14:07:36;;;;;;;;;;;;;;;-144.34;100.00;60189.88;5038183;28;19975;-89
2021/01/20 14:10:59;;;;;;;;;;;;;;;-144.34;100.00;60189.88;5036257;28;19917;-90
2021/01/20 14:14:23;;;;;;;;;;;;;;;-144.34;100.00;60189.88;5025252;28;19917;-90
2021/01/20 14:17:47;;;;;;;;;;;;;;;-144.34;100.00;60189.88;5027980;28;20319;-89
2021/01/20 14:21:11;;;;;;;;;;;;;;;-144.34;100.00;60189.88;5019198;28;20372;-88
2021/01/20 14:24:35;;;;;;;;;;;;;;;-144.34;100.00;60189.88;5016372;28;19999;-88
2021/01/20 14:27:59;;;;;;;;;;;;;;;-144.34;100.00;60189.88;5008319;28;19924;-89
2021/01/20 14:31:23;;;;;;;;;;;;;;;-144.34;100.00;60189.88;5027037;28;20307;-89
2021/01/20 14:34:47;;;;;;;;;;;;;;;-144.34;100.00;60189.88;5015497;28;20307;-89
2021/01/20 14:38:11;;;;;;;;;;;;;;;-144.34;100.00;60189.88;5021189;28;19972;-89
2021/01/20 14:41:35;;;;;;;;;;;;;;;-144.34;100.00;60189.88;5017994;28;19982;-89
2021/01/20 14:44:59;;;;;;;;;;;;;;;-144.34;100.00;60189.88;5021252;28;20020;-89
2021/01/20 14:48:22;;;;;;;;;;;;;;;-144.34;100.00;60189.88;5014652;28;19935;-89
2021/01/20 14:51:46;;;;;;;;;;;;;;;-144.34;100.00;60189.88;5022684;28;19920;-88
2021/01/20 14:55:10;;;;;;;;;;;;;;;-144.34;100.00;60189.88;5015479;28;20653;-87
2021/01/20 14:58:34;;;;;;;;;;;;;;;-144.34;100.00;60189.88;5027885;28;20007;-89
2021/01/20 15:01:58;;;;;;;;;;;;;;;-144.34;100.00;60189.88;5009289;28;20024;-89
2021/01/20 15:05:22;;;;;;;;;;;;;;;-144.34;100.00;60189.88;5028872;28;20360;-88
2021/01/20 15:08:46;;;;;;;;;;;;;;;-144.34;100.00;60189.88;5021088;28;20414;-90
2021/01/20 15:12:10;;;;;;;;;;;;;;;-144.34;100.00;60189.88;5012583;28;19928;-89
2021/01/20 15:15:34;;;;;;;;;;;;;;;-144.34;100.00;60189.88;5030470;28;19982;-88
2021/01/20 15:18:58;;;;;;;;;;;;;;;-144.34;100.00;60189.88;5020480;28;19921;-87
2021/01/20 15:22:22;;;;;;;;;;;;;;;-144.34;100.00;60189.88;5017387;28;19921;-87
2021/01/20 15:25:46;;;;;;;;;;;;;;;-144.34;100.00;60189.88;5026804;28;19917;-87
2021/01/20 15:29:10;;;;;;;;;;;;;;;-144.34;100.00;60189.88;5019560;28;20044;-87
2021/01/20 15:32:34;;;;;;;;;;;;;;;-144.34;100.00;60189.88;5006481;28;19952;-87
2021/01/20 15:35:58;;;;;;;;;;;;;;;-144.34;100.00;60189.88;5029356;28;19920;-87
2021/01/20 15:39:22;;;;;;;;;;;;;;;-144.34;100.00;60189.88;5026169;28;19921;-87
2021/01/20 15:42:46;;;;;;;;;;;;;;;-144.34;100.00;60189.88;5012595;28;19966;-87
2021/01/20 15:46:09;;;;;;;;;;;;;;;-144.34;100.00;60189.88;5027425;28;19931;-89
2021/01/20 15:49:33;;;;;;;;;;;;;;;-144.34;100.00;60189.88;5021473;28;19921;-88
2021/01/20 15:52:57;;;;;;;;;;;;;;;-144.34;100.00;60189.88;5012180;28;20027;-89
2021/01/20 15:56:21;;;;;;;;;;;;;;;-144.34;100.00;60189.88;5021589;28;20035;-89
2021/01/20 15:59:45;;;;;;;;;;;;;;;-144.34;100.00;60189.88;5029366;28;19924;-89
2021/01/20 16:03:09;;;;;;;;;;;;;;;-144.34;100.00;60189.88;5021197;28;20011;-88
2021/01/20 16:06:42;;;;;;;;;;;;;;;-144.34;100.00;60189.88;5011615;28;19917;-90
2021/01/20 16:10:06;;;;;;;;;;;;;;;-144.34;100.00;60189.88;5009560;28;19967;-89
2021/01/20 16:13:30;;;;;;;;;;;;;;;-144.34;100.00;60189.88;5011311;28;20330;-88
2021/01/20 16:16:54;;;;;;;;;;;;;;;-144.34;100.00;60189.88;5007559;28;19975;-89
2021/01/20 16:20:18;;;;;;;;;;;;;;;-144.34;100.00;60189.88;5019988;28;19928;-88
2021/01/20 16:23:42;;;;;;;;;;;;;;;-144.34;100.00;60189.88;5026271;28;19964;-89
2021/01/20 16:27:06;;;;;;;;;;;;;;;-144.34;100.00;60189.88;5007520;28;19921;-89
2021/01/20 16:30:30;;;;;;;;;;;;;;;-144.34;100.00;60189.88;5020442;28;19967;-87
2021/01/20 16:33:54;;;;;;;;;;;;;;;-144.34;100.00;60189.88;5029370;28;19917;-88
2021/01/20 16:37:18;;;;;;;;;;;;;;;-144.34;100.00;60189.88;5019346;28;19967;-89
2021/01/20 16:40:42;;;;;;;;;;;;;;;-144.34;100.00;60189.88;5031464;28;19917;-89
2021/01/20 16:44:06;;;;;;;;;;;;;;;-144.34;100.00;60189.88;5028420;28;19917;-88
2021/01/20 16:47:29;;;;;;;;;;;;;;;-144.34;100.00;60189.88;5007216;28;19925;-90
2021/01/20 16:50:53;;;;;;;;;;;;;;;-144.34;100.00;60189.88;5022044;28;19916;-88
2021/01/20 16:54:17;;;;;;;;;;;;;;;-144.34;100.00;60189.88;5017705;28;20580;-88
2021/01/20 16:57:41;;;;;;;;;;;;;;;-144.34;100.00;60189.88;5025198;28;19921;-88
2021/01/20 17:01:05;;;;;;;;;;;;;;;-144.34;100.00;60189.88;5018786;28;19924;-88
2021/01/20 17:04:30;;;;;;;;;;;;;;;-144.34;100.00;60189.88;5011686;28;20086;-88
2021/01/20 17:07:54;;;;;;;;;;;;;;;-144.34;100.00;60189.88;5028241;28;20395;-88
2021/01/20 17:11:18;;;;;;;;;;;;;;;-144.34;100.00;60189.88;5019761;28;19920;-87
2021/01/20 17:14:41;;;;;;;;;;;;;;;-144.34;100.00;60189.88;5014033;28;19975;-87
2021/01/20 17:18:05;;;;;;;;;;;;;;;-144.34;100.00;60189.88;5005875;28;19924;-88
2021/01/20 17:21:29;;;;;;;;;;;;;;;-144.34;100.00;60189.88;5005471;28;20008;-87
2021/01/20 17:24:53;;;;;;;;;;;;;;;-144.34;100.00;60189.88;5027015;28;19917;-88
2021/01/20 17:28:17;;;;;;;;;;;;;;;-144.34;100.00;60189.88;5027418;28;19921;-88
2021/01/20 17:31:41;;;;;;;;;;;;;;;-144.34;100.00;60189.88;5027848;28;19921;-88
2021/01/20 17:35:05;;;;;;;;;;;;;;;-144.34;100.00;60189.88;5022099;28;20681;-88
2021/01/20 17:38:29;;;;;;;;;;;;;;;-144.34;100.00;60189.88;5010682;28;20299;-89
2021/01/20 17:41:53;;;;;;;;;;;;;;;-144.34;100.00;60189.88;5021829;28;19917;-88
2021/01/20 17:45:17;;;;;;;;;;;;;;;-144.34;100.00;60189.88;5020558;28;19920;-88
2021/01/20 17:48:41;;;;;;;;;;;;;;;-144.34;100.00;60189.88;5028155;28;20281;-88
2021/01/20 17:52:05;;;;;;;;;;;;;;;-144.34;100.00;60189.88;5016239;28;19921;-87
2021/01/20 17:55:31;;;;;;;;;;;;;;;-144.34;100.00;60189.88;5016832;28;21084;-87
2021/01/20 17:58:57;;;;;;;;;;;;;;;-144.34;100.00;60189.88;5011425;28;19928;-87
2021/01/20 18:02:21;;;;;;;;;;;;;;;-144.34;100.00;60189.88;5018108;28;19920;-89
2021/01/20 18:05:45;;;;;;;;;;;;;;;-144.34;100.00;60189.88;5030631;28;19921;-88
2021/01/20 18:09:09;;;;;;;;;;;;;;;-144.34;100.00;60189.88;5027532;28;19925;-90
2021/01/20 18:12:37;;;;;;;;;;;;;;;-144.34;100.00;60189.88;5014411;28;20684;-88
2021/01/20 18:16:01;;;;;;;;;;;;;;;-144.34;100.00;60189.88;5013700;28;20015;-88
2021/01/20 18:19:25;;;;;;;;;;;;;;;-144.34;100.00;60189.88;5007282;28;20335;-88
2021/01/20 18:22:51;;;;;;;;;;;;;;;-144.34;100.00;60189.88;5032274;28;19936;-88
2021/01/20 18:26:19;;;;;;;;;;;;;;;-144.34;100.00;60189.88;5025243;28;19917;-88
2021/01/20 18:29:43;;;;;;;;;;;;;;;-144.34;100.00;60189.88;5017953;28;19924;-88
2021/01/20 18:33:10;;;;;;;;;;;;;;;-144.34;100.00;60189.88;5019191;28;19916;-88
2021/01/20 18:36:34;;;;;;;;;;;;;;;-144.34;100.00;60189.88;5024285;28;20830;-89
2021/01/20 18:40:01;;;;;;;;;;;;;;;-144.34;100.00;60189.88;5018931;28;19921;-88
2021/01/20 18:43:26;;;;;;;;;;;;;;;-144.34;100.00;60189.88;5011751;28;19940;-88
2021/01/20 18:46:51;;;;;;;;;;;;;;;-144.34;100.00;60189.88;5026648;28;19921;-88
2021/01/20 18:50:18;;;;;;;;;;;;;;;-144.34;100.00;60189.88;5014133;28;19921;-88
2021/01/20 18:53:41;;;;;;;;;;;;;;;-144.34;100.00;60189.88;5023828;28;19936;-88
2021/01/20 18:57:06;;;;;;;;;;;;;;;-144.34;100.00;60189.88;5025005;28;19917;-88
2021/01/20 19:00:30;;;;;;;;;;;;;;;-144.34;100.00;60189.88;5018015;28;20997;-88
2021/01/20 19:03:54;;;;;;;;;;;;;;;-144.34;100.00;60189.88;5010046;28;20036;-88
2021/01/20 19:07:18;;;;;;;;;;;;;;;-144.34;100.00;60189.88;5023419;28;19913;-89
2021/01/20 19:10:43;;;;;;;;;;;;;;;-144.34;100.00;60189.88;5021581;28;20323;-88
2021/01/20 19:14:07;;;;;;;;;;;;;;;-144.34;100.00;60189.88;5019636;28;19917;-88
2021/01/20 19:17:31;;;;;;;;;;;;;;;-144.34;100.00;60189.88;5009417;28;19917;-89
2021/01/20 19:20:55;;;;;;;;;;;;;;;-144.34;100.00;60189.88;5011466;28;19917;-88
2021/01/20 19:24:19;;;;;;;;;;;;;;;-144.34;100.00;60189.88;5017707;28;19928;-89
2021/01/20 19:27:43;;;;;;;;;;;;;;;-144.34;100.00;60189.88;5010437;28;19916;-88
2021/01/20 19:31:07;;;;;;;;;;;;;;;-144.34;100.00;60189.88;5017589;28;19931;-89
2021/01/20 19:34:32;;;;;;;;;;;;;;;-144.34;100.00;60189.88;5026741;28;19916;-89
2021/01/20 19:37:56;;;;;;;;;;;;;;;-144.34;100.00;60189.88;5026087;28;20012;-89
2021/01/20 19:41:22;;;;;;;;;;;;;;;-144.34;100.00;60189.88;5025580;28;19967;-88
2021/01/20 19:44:49;;;;;;;;;;;;;;;-144.34;100.00;60189.88;5016355;28;19928;-88
2021/01/20 19:48:12;;;;;;;;;;;;;;;-144.34;100.00;60189.88;5019035;28;20398;-88
2021/01/20 19:51:37;;;;;;;;;;;;;;;-144.34;100.00;60189.88;5017817;28;19924;-88
2021/01/20 19:55:01;;;;;;;;;;;;;;;-144.34;100.00;60189.88;5018149;28;19928;-88
2021/01/20 19:58:25;;;;;;;;;;;;;;;-144.34;100.00;60189.88;5010316;28;19920;-88
2021/01/20 20:01:49;;;;;;;;;;;;;;;-144.34;100.00;60189.88;5006957;28;20004;-88
2021/01/20 20:05:13;;;;;;;;;;;;;;;-144.34;100.00;60189.88;5025961;28;19954;-87
2021/01/20 20:08:37;;;;;;;;;;;;;;;-144.34;100.00;60189.88;5017570;28;20016;-88
2021/01/20 20:12:01;;;;;;;;;;;;;;;-144.34;100.00;60189.88;5024184;28;19920;-88
2021/01/20 20:15:25;;;;;;;;;;;;;;;-144.34;100.00;60189.88;5018878;28;19924;-88
2021/01/20 20:18:52;;;;;;;;;;;;;;;-144.34;100.00;60189.88;5018825;28;19917;-88
2021/01/20 20:22:16;;;;;;;;;;;;;;;-144.34;100.00;60189.88;5023928;28;19920;-89
2021/01/20 20:25:42;;;;;;;;;;;;;;;-144.34;100.00;60189.88;5016945;28;20287;-89
2021/01/20 20:29:06;;;;;;;;;;;;;;;-144.34;100.00;60189.88;4996617;28;20543;-88
2021/01/20 20:32:33;;;;;;;;;;;;;;;-144.34;100.00;60189.88;5005553;28;20119;-88
2021/01/20 20:35:56;;;;;;;;;;;;;;;-144.34;100.00;60189.88;5012806;28;19971;-89
2021/01/20 20:39:21;;;;;;;;;;;;;;;-144.34;100.00;60189.88;5025553;28;19956;-88
2021/01/20 20:42:45;;;;;;;;;;;;;;;-144.34;100.00;60189.88;5027394;28;20322;-88
2021/01/20 20:46:09;;;;;;;;;;;;;;;-144.34;100.00;60189.88;5019808;28;20427;-88
2021/01/20 20:49:33;;;;;;;;;;;;;;;-144.34;100.00;60189.88;5018720;28;19925;-89
2021/01/20 20:52:57;;;;;;;;;;;;;;;-144.34;100.00;60189.88;5013062;28;20260;-88
2021/01/20 20:56:21;;;;;;;;;;;;;;;-144.34;100.00;60189.88;5010603;28;20719;-89
2021/01/20 20:59:45;;;;;;;;;;;;;;;-144.34;100.00;60189.88;5022234;28;19913;-88
2021/01/20 21:03:10;;;;;;;;;;;;;;;-144.34;100.00;60189.88;5013742;28;20000;-89
2021/01/20 21:06:34;;;;;;;;;;;;;;;-144.34;100.00;60189.88;5032778;28;19917;-88
2021/01/20 21:09:58;;;;;;;;;;;;;;;-144.34;100.00;60189.88;5026660;28;19917;-88
2021/01/20 21:13:21;;;;;;;;;;;;;;;-144.34;100.00;60189.88;5016340;28;19920;-88
2021/01/20 21:16:45;;;;;;;;;;;;;;;-144.34;100.00;60189.88;5031409;28;19924;-89
2021/01/20 21:20:10;;;;;;;;;;;;;;;-144.34;100.00;60189.88;5033716;28;20007;-88
2021/01/20 21:23:33;;;;;;;;;;;;;;;-144.34;100.00;60189.88;5019604;28;20011;-88
2021/01/20 21:26:57;;;;;;;;;;;;;;;-144.34;100.00;60189.88;5024734;28;19931;-87
2021/01/20 21:30:21;;;;;;;;;;;;;;;-144.34;100.00;60189.88;5017156;28;19921;-87
2021/01/20 21:33:45;;;;;;;;;;;;;;;-144.34;100.00;60189.88;5020258;28;19921;-87
2021/01/20 21:37:09;;;;;;;;;;;;;;;-144.34;100.00;60189.88;5029419;28;19966;-88
2021/01/20 21:40:33;;;;;;;;;;;;;;;-144.34;100.00;60189.88;5010941;28;19921;-89
2021/01/20 21:43:57;;;;;;;;;;;;;;;-144.34;100.00;60189.88;5024367;28;20296;-87
2021/01/20 21:47:21;;;;;;;;;;;;;;;-144.34;100.00;60189.88;5026594;28;20191;-88
2021/01/20 21:50:45;;;;;;;;;;;;;;;-144.34;100.00;60189.88;5031212;28;19928;-87
2021/01/20 21:54:09;;;;;;;;;;;;;;;-144.34;100.00;60189.88;5016765;28;20002;-88
2021/01/20 21:57:32;;;;;;;;;;;;;;;-144.34;100.00;60189.88;5032905;28;20010;-88
2021/01/20 22:00:57;;;;;;;;;;;;;;;-144.34;100.00;60189.88;5026677;28;19917;-88
2021/01/20 22:04:21;;;;;;;;;;;;;;;-144.34;100.00;60189.88;5017410;28;19913;-87
2021/01/20 22:07:45;;;;;;;;;;;;;;;-144.34;100.00;60189.88;5035215;28;20004;-88
2021/01/20 22:11:09;;;;;;;;;;;;;;;-144.34;100.00;60189.88;5025783;28;19921;-89
2021/01/20 22:14:33;;;;;;;;;;;;;;;-144.34;100.00;60189.88;5026241;28;20386;-89
2021/01/20 22:17:57;;;;;;;;;;;;;;;-144.34;100.00;60189.88;5016867;28;19966;-89
2021/01/20 22:21:21;;;;;;;;;;;;;;;-144.34;100.00;60189.88;5025804;28;19965;-88
2021/01/20 22:24:45;;;;;;;;;;;;;;;-144.34;100.00;60189.88;5023062;28;19921;-87
2021/01/20 22:28:09;;;;;;;;;;;;;;;-144.34;100.00;60189.88;5025602;28;19921;-89
2021/01/20 22:31:33;;;;;;;;;;;;;;;-144.34;100.00;60189.88;5012371;28;19913;-88
2021/01/20 22:34:56;;;;;;;;;;;;;;;-144.34;100.00;60189.88;5031336;28;19963;-88
2021/01/20 22:38:20;;;;;;;;;;;;;;;-144.34;100.00;60189.88;5023961;28;21094;-89
2021/01/20 22:41:44;;;;;;;;;;;;;;;-144.34;100.00;60189.88;5013969;28;19917;-88
2021/01/20 22:45:08;;;;;;;;;;;;;;;-144.34;100.00;60189.88;5032842;28;19921;-88
2021/01/20 22:48:32;;;;;;;;;;;;;;;-144.34;100.00;60189.88;5012252;28;20012;-87
2021/01/20 22:51:56;;;;;;;;;;;;;;;-144.34;100.00;60189.88;5014552;28;20098;-88
2021/01/20 22:55:20;;;;;;;;;;;;;;;-144.34;100.00;60189.88;5020046;28;20320;-88
2021/01/20 22:58:44;;;;;;;;;;;;;;;-144.34;100.00;60189.88;5024472;28;19917;-88